Milford Sound (NZMF)

Aerodrome — Elev 0
New Zealand
S044.40.33.012 E167.55.19.956
Loading chart...

NOTE: there is a MAJOR bug with the NZMF in the default FSX scenery that results in an 850ft high airport-shaped plateau that shoots up from the floor of the sound. If you are using FSX you need to install this scenery update to fix the problem. FS2004 is not afflicted with this issue.

Current Weather

NZMF 271700Z 00000KT 40KM SCT024 04/03 Q1023 RMK ALT NZQN VATSIM USE ONLY

Published 33 minutes ago

Airport Activity

Loading chart...
Loading chart...

Positions

CallsignRadio Name / Freq / Voice Room / TypeFrequencyVoice RoomType
NZCH-D_CTR Christchurch Control
129.200
nzch-d_ctr
129.200nzch-d_ctr
NZCH-S_CTR Christchurch Control
129.300
nzch-s_ctr
129.300nzch-s_ctr
UNICOM NZZC UNICOM
122.800
unicom_nzzc
122.800unicom_nzzc

Charts